Metar Cercanos

 

LEPA - Palma De Mallorc, Spain
Distance from station: ONO 38km
Actualización: Wed, 12-May-2021 5:00pm CEST
Few Clouds
Few Clouds
 Viento del OSO
Viento: OSO 30 km/h
Temperatura: 21°C
Rocío: 13°C
Humedad: 60%
Barómetro: 1014 hPa
Clouds: Few Clouds
Visibility: 10 km
Cloud details: Few Clouds 853 m
2021/05/12 15:00 LEPA 121500Z 24016KT 9999 FEW028 21/13 Q1014 NOSIG
LEMH - Mahon/Menorca Is, Spain
Distance from station: ENE 105km
Actualización: Wed, 12-May-2021 5:00pm CEST
Few Clouds
Few Clouds
 Viento del OSO
Viento: OSO 26 km/h
Temperatura: 21°C
Rocío: 12°C
Humedad: 57%
Barómetro: 1013 hPa
Clouds: Few Clouds
Visibility: 10 km
Cloud details: Few Clouds 366 m
2021/05/12 15:00 LEMH 121500Z 25014KT 210V280 9999 FEW012 21/12 Q1013
 
LEIB - Ibiza/Es Codola, Spain
Distance from station: OSO 165km
Actualización: Wed, 12-May-2021 5:00pm CEST
Few Clouds
Few Clouds
 Viento del SO
Viento: SO 30 km/h
Temperatura: 20°C
Rocío: 15°C
Humedad: 73%
Barómetro: 1014 hPa
Clouds: Few Clouds
Visibility: 10 km
Cloud details: Few Clouds 457 m
2021/05/12 15:00 LEIB 121500Z 22016KT 9999 FEW015 20/15 Q1014 NOSIG
LEBL - Barcelona Airpor, Spain
Distance from station: NNO 225km
Actualización: Wed, 12-May-2021 5:00pm CEST
Few Clouds
Few Clouds
 Viento del SO
Viento: SO 37 km/h
Temperatura: 19°C
Rocío: 11°C
Humedad: 60%
Barómetro: 1011 hPa
Clouds: Few Clouds
Visibility: 10 km
Cloud details: Few Clouds 1219 m
2021/05/12 15:00 LEBL 121500Z 22020KT 9999 FEW040 19/11 Q1011 NOSIG
 
LEVC - Valencia (civ/Mi, Spain
Distance from station: NO 188km
Actualización: Wed, 12-May-2021 5:00pm CEST
Few Clouds
Few Clouds
 Viento del O
Viento: O 30 km/h
Temperatura: 26°C
Rocío: 5°C
Humedad: 26%
Barómetro: 1013 hPa
Clouds: Few Clouds
Visibility: 10 km
Cloud details: Few Clouds 1219 m
2021/05/12 15:00 LEVC 121500Z 28016KT 250V310 9999 FEW040 26/05 Q1013 NOSIG
LEGE - Gerona/Costa Bra, Spain
Distance from station: N 276km
Actualización: Wed, 12-May-2021 5:00pm CEST
Few Clouds
Few Clouds
 Viento del O
Viento: O 22 km/h, Racha: 43 km/h
Temperatura: 23°C
Rocío: 5°C
Humedad: 31%
Barómetro: 1009 hPa
Clouds: Few Clouds
Visibility: 10 km
Cloud details: Few Clouds 2316 m
2021/05/12 15:00 LEGE 121500Z 26012G23KT 200V320 9999 FEW076 23/05 Q1009
 
LEAL - Alicante/El Alte, Spain
Distance from station: OSO 344km
Actualización: Wed, 12-May-2021 5:00pm CEST
Despejado
Despejado
 Viento del S
Viento: S 22 km/h
Temperatura: 22°C
Rocío: 13°C
Humedad: 57%
Barómetro: 1014 hPa
Resumen: Despejado
Visibility: greater than 10 km
2021/05/12 15:00 LEAL 121500Z 18012KT 150V230 CAVOK 22/13 Q1014 NOSIG
LEAM - Almeria Airport, Spain
Distance from station: SSO 56km
Actualización: Wed, 12-May-2021 5:00pm CEST
Despejado
Despejado
 Viento del SSO
Viento: SSO 22 km/h
Temperatura: 20°C
Rocío: 14°C
Humedad: 69%
Barómetro: 1016 hPa
Resumen: Despejado
Visibility: greater than 10 km
2021/05/12 15:00 LEAM 121500Z 21012KT CAVOK 20/14 Q1016
 
LEZG - Zaragoza (mil/Ci, Spain
Distance from station: NO 431km
Actualización: Wed, 12-May-2021 5:00pm CEST
Nearby showers, Parcialmente nuboso
Nearby showers, Parcialmente nuboso
 Viento del O
Viento: O 39 km/h
Temperatura: 23°C
Rocío: 5°C
Humedad: 31%
Barómetro: 1012 hPa
Resumen: Nearby Showers
Clouds: Parcialmente nuboso
Visibility: 10 km
Cloud details: Few Clouds 1219 m
Parcialmente nuboso 2134 m
2021/05/12 15:00 LEZG 121500Z 26021KT 9999 VCSH FEW040TCU SCT070 23/05 Q1012
LEMD - Madrid/Barajas, Spain
Distance from station: ONO 234km
Actualización: Wed, 12-May-2021 5:00pm CEST
Parcialmente nuboso
Parcialmente nuboso
 Viento del OSO
Viento: OSO 24 km/h
Temperatura: 20°C
Rocío: 5°C
Humedad: 38%
Barómetro: 1016 hPa
Clouds: Parcialmente nuboso
Visibility: 10 km
Cloud details: Few Clouds 1981 m
Parcialmente nuboso 2286 m
2021/05/12 15:00 LEMD 121500Z 24013KT 9999 FEW065 SCT075 20/05 Q1016 NOSIG
 
LEGR - Granada Airport, Spain
Distance from station: OSO 62km
Actualización: Wed, 12-May-2021 5:00pm CEST
Few Clouds
Few Clouds
 Viento del O
Viento: O 22 km/h
Temperatura: 23°C
Rocío: 9°C
Humedad: 41%
Barómetro: 1019 hPa
Clouds: Few Clouds
Visibility: 10 km
Cloud details: Few Clouds 1524 m
2021/05/12 15:00 LEGR 121500Z 27012KT 9999 FEW050 23/09 Q1019
LEMG - Malaga (civ/Mil), Spain
Distance from station: OSO 227km
Actualización: Wed, 12-May-2021 5:00pm CEST
Few Clouds
Few Clouds
 Viento del NO
Viento: NO 22 km/h, Racha: 43 km/h
Temperatura: 28°C
Rocío: 10°C
Humedad: 32%
Barómetro: 1017 hPa
Clouds: Few Clouds
Visibility: 10 km
Cloud details: Few Clouds 1524 m
2021/05/12 15:00 LEMG 121500Z 32012G23KT 290V360 9999 FEW050 28/10 Q1017 NOSIG
 
LEZL - Sevilla (civ/Mil, Spain
Distance from station: S 318km
Actualización: Wed, 12-May-2021 5:00pm CEST
Despejado
Despejado
 Viento del ONO
Viento: ONO 17 km/h
Temperatura: 25°C
Rocío: 9°C
Humedad: 36%
Barómetro: 1019 hPa
Resumen: Despejado
Visibility: greater than 10 km
2021/05/12 15:00 LEZL 121500Z 30009KT 250V350 CAVOK 25/09 Q1019 NOSIG
LEVT - Vitoria, Spain
Distance from station: NO 226km
Actualización: Wed, 12-May-2021 5:00pm CEST
Muy nuboso
Muy nuboso
 Viento del NNO
Viento: NNO 17 km/h
Temperatura: 11°C
Rocío: 8°C
Humedad: 82%
Barómetro: 1016 hPa
Clouds: Muy nuboso
Visibility: 10 km
Cloud details: Few Clouds 457 m
Parcialmente nuboso 792 m
Muy nuboso 1280 m
2021/05/12 15:00 LEVT 121500Z 33009KT 300V010 9999 FEW015 SCT026 BKN042 11/08 Q1016
 
LEBB - Bilbao/Sondica, Spain
Distance from station: NNO 235km
Actualización: Wed, 12-May-2021 5:00pm CEST
Muy nuboso
Muy nuboso
 Viento del ONO
Viento: ONO 43 km/h
Temperatura: 14°C
Rocío: 9°C
Humedad: 72%
Barómetro: 1017 hPa
Clouds: Muy nuboso
Visibility: 10 km
Cloud details: Parcialmente nuboso 853 m
Muy nuboso 1219 m
2021/05/12 15:00 LEBB 121500Z 30023KT 9999 SCT028 BKN040 14/09 Q1017 TEMPO 3000 RA BKN010
LESO - San Sebastian/Fu, Spain
Distance from station: N 231km
Actualización: Wed, 12-May-2021 5:00pm CEST
Muy nuboso
Muy nuboso
 Viento del varies
Viento: varies 17 km/h, Racha: 41 km/h
Temperatura: 15°C
Rocío: 10°C
Humedad: 72%
Barómetro: 1016 hPa
Clouds: Muy nuboso
Visibility: 10 km
Cloud details: Parcialmente nuboso 884 m
Parcialmente nuboso 1219 m
Muy nuboso 1524 m
2021/05/12 15:00 LESO 121500Z VRB09G22KT 9999 SCT029 SCT040 BKN050 15/10 Q1016
 
LEVD - Valladolid(Mil/C, Spain
Distance from station: ONO 239km
Actualización: Wed, 12-May-2021 5:00pm CEST
Despejado
Despejado
 Viento del O
Viento: O 39 km/h, Racha: 61 km/h
Temperatura: 16°C
Rocío: 5°C
Humedad: 48%
Barómetro: 1017 hPa
Resumen: Despejado
Visibility: greater than 10 km
2021/05/12 15:00 LEVD 121500Z 26021G33KT 230V300 CAVOK 16/05 Q1017
LESA - Salamanca (civ/M, Spain
Distance from station: ONO 349km
Actualización: Wed, 12-May-2021 5:00pm CEST
Despejado
Despejado
 Viento del ONO
Viento: ONO 30 km/h
Temperatura: 17°C
Rocío: 3°C
Humedad: 39%
Barómetro: 1019 hPa
Resumen: Despejado
Visibility: greater than 10 km
2021/05/12 15:00 LESA 121500Z 29016KT 260V320 CAVOK 17/03 Q1019
 
LEXJ - Santander/Paraya, Spain
Distance from station: NNO 247km
Actualización: Wed, 12-May-2021 5:00pm CEST
Muy nuboso
Muy nuboso
 Viento del ONO
Viento: ONO 33 km/h
Temperatura: 15°C
Rocío: 10°C
Humedad: 72%
Barómetro: 1017 hPa
Clouds: Muy nuboso
Visibility: 10 km
Cloud details: Parcialmente nuboso 914 m
Muy nuboso 1372 m
2021/05/12 15:00 LEXJ 121500Z 29018KT 270V340 9999 SCT030 BKN045 15/10 Q1017
LEAS - Asturias/Aviles, Spain
Distance from station: NO 214km
Actualización: Wed, 12-May-2021 5:00pm CEST
Muy nuboso
Muy nuboso
 Viento del ONO
Viento: ONO 35 km/h
Temperatura: 13°C
Rocío: 8°C
Humedad: 72%
Barómetro: 1018 hPa
Clouds: Muy nuboso
Visibility: 10 km
Cloud details: Few Clouds 457 m
Muy nuboso 1067 m
2021/05/12 15:00 LEAS 121500Z 30019KT 9999 FEW015 BKN035 13/08 Q1018 NOSIG
 
LECO - La Coruna/Alvedr, Spain
Distance from station: ONO 222km
Actualización: Wed, 12-May-2021 5:00pm CEST
Parcialmente nuboso
Parcialmente nuboso
 Viento del ONO
Viento: ONO 11 km/h
Temperatura: 15°C
Rocío: 9°C
Humedad: 68%
Barómetro: 1019 hPa
Clouds: Parcialmente nuboso
Visibility: 10 km
Cloud details: Parcialmente nuboso 1219 m
2021/05/12 15:00 LECO 121500Z 29006KT 210V360 9999 SCT040 15/09 Q1019 NOSIG
LEVX - Vigo/Peinador, Spain
Distance from station: O 214km
Actualización: Wed, 12-May-2021 5:00pm CEST
Muy nuboso
Muy nuboso
 Viento del OSO
Viento: OSO 15 km/h
Temperatura: 14°C
Rocío: 8°C
Humedad: 67%
Barómetro: 1021 hPa
Clouds: Muy nuboso
Visibility: 10 km
Cloud details: Muy nuboso 853 m
2021/05/12 15:00 LEVX 121500Z 25008KT 200V320 9999 BKN028 14/08 Q1021 NOSIG